sensor_id;sensor_type;location;lat;lon;timestamp;P1;durP1;ratioP1;P2;durP2;ratioP2
80215;SDS011;69532;37.974;23.708;2023-05-19T00:01:39;7.78;;;4.90;;
80215;SDS011;69532;37.974;23.708;2023-05-19T00:04:12;10.68;;;5.40;;
80215;SDS011;69532;37.974;23.708;2023-05-19T00:06:39;10.50;;;5.50;;
80215;SDS011;69532;37.974;23.708;2023-05-19T00:09:11;9.98;;;5.47;;
80215;SDS011;69532;37.974;23.708;2023-05-19T00:11:37;10.23;;;5.28;;
80215;SDS011;69532;37.974;23.708;2023-05-19T00:14:04;9.77;;;4.97;;
80215;SDS011;69532;37.974;23.708;2023-05-19T00:16:32;9.45;;;4.90;;
80215;SDS011;69532;37.974;23.708;2023-05-19T00:18:58;9.32;;;5.03;;
80215;SDS011;69532;37.974;23.708;2023-05-19T00:21:26;8.85;;;4.82;;
80215;SDS011;69532;37.974;23.708;2023-05-19T00:23:52;9.85;;;5.22;;
80215;SDS011;69532;37.974;23.708;2023-05-19T00:26:18;9.55;;;4.90;;
80215;SDS011;69532;37.974;23.708;2023-05-19T00:28:44;8.77;;;4.90;;
80215;SDS011;69532;37.974;23.708;2023-05-19T00:31:09;8.52;;;5.43;;
80215;SDS011;69532;37.974;23.708;2023-05-19T00:33:35;8.02;;;5.13;;
80215;SDS011;69532;37.974;23.708;2023-05-19T00:36:01;11.98;;;5.32;;
80215;SDS011;69532;37.974;23.708;2023-05-19T00:38:31;9.63;;;4.85;;
80215;SDS011;69532;37.974;23.708;2023-05-19T00:40:58;9.35;;;4.93;;
80215;SDS011;69532;37.974;23.708;2023-05-19T00:43:25;9.38;;;4.85;;
80215;SDS011;69532;37.974;23.708;2023-05-19T00:45:51;7.40;;;4.68;;
80215;SDS011;69532;37.974;23.708;2023-05-19T00:48:17;9.07;;;4.80;;
80215;SDS011;69532;37.974;23.708;2023-05-19T00:50:43;10.10;;;4.88;;
80215;SDS011;69532;37.974;23.708;2023-05-19T00:53:10;7.82;;;4.53;;
80215;SDS011;69532;37.974;23.708;2023-05-19T00:55:36;10.32;;;4.82;;
80215;SDS011;69532;37.974;23.708;2023-05-19T00:58:04;8.73;;;4.95;;
80215;SDS011;69532;37.974;23.708;2023-05-19T01:00:33;8.70;;;4.72;;
80215;SDS011;69532;37.974;23.708;2023-05-19T01:03:00;8.98;;;4.70;;
80215;SDS011;69532;37.974;23.708;2023-05-19T01:05:26;9.13;;;4.97;;
80215;SDS011;69532;37.974;23.708;2023-05-19T01:07:52;9.65;;;4.75;;
80215;SDS011;69532;37.974;23.708;2023-05-19T01:10:20;8.25;;;5.00;;
80215;SDS011;69532;37.974;23.708;2023-05-19T01:12:46;9.60;;;4.82;;
80215;SDS011;69532;37.974;23.708;2023-05-19T01:15:13;12.45;;;4.90;;
80215;SDS011;69532;37.974;23.708;2023-05-19T01:20:32;9.43;;;5.00;;
80215;SDS011;69532;37.974;23.708;2023-05-19T01:31:07;9.05;;;4.68;;
80215;SDS011;69532;37.974;23.708;2023-05-19T01:33:35;9.82;;;4.57;;
80215;SDS011;69532;37.974;23.708;2023-05-19T01:36:03;10.38;;;4.88;;
80215;SDS011;69532;37.974;23.708;2023-05-19T01:38:33;7.10;;;4.75;;
80215;SDS011;69532;37.974;23.708;2023-05-19T01:40:59;9.68;;;4.85;;
80215;SDS011;69532;37.974;23.708;2023-05-19T01:43:27;8.63;;;4.60;;
80215;SDS011;69532;37.974;23.708;2023-05-19T01:45:54;9.43;;;4.88;;
80215;SDS011;69532;37.974;23.708;2023-05-19T01:48:22;9.73;;;4.85;;
80215;SDS011;69532;37.974;23.708;2023-05-19T01:50:49;11.05;;;5.15;;
80215;SDS011;69532;37.974;23.708;2023-05-19T01:53:15;8.35;;;4.80;;
80215;SDS011;69532;37.974;23.708;2023-05-19T01:55:45;8.88;;;5.15;;
80215;SDS011;69532;37.974;23.708;2023-05-19T01:58:22;12.43;;;5.20;;
80215;SDS011;69532;37.974;23.708;2023-05-19T02:07:08;8.82;;;5.10;;
80215;SDS011;69532;37.974;23.708;2023-05-19T02:10:04;8.43;;;5.03;;
80215;SDS011;69532;37.974;23.708;2023-05-19T02:12:35;10.52;;;5.03;;
80215;SDS011;69532;37.974;23.708;2023-05-19T02:17:31;11.27;;;4.68;;
80215;SDS011;69532;37.974;23.708;2023-05-19T02:20:00;8.05;;;4.60;;
80215;SDS011;69532;37.974;23.708;2023-05-19T02:22:26;8.13;;;4.78;;
80215;SDS011;69532;37.974;23.708;2023-05-19T02:24:52;8.27;;;4.75;;
80215;SDS011;69532;37.974;23.708;2023-05-19T02:27:17;7.93;;;4.75;;
80215;SDS011;69532;37.974;23.708;2023-05-19T02:29:43;8.10;;;5.40;;
80215;SDS011;69532;37.974;23.708;2023-05-19T02:32:09;9.13;;;5.00;;
80215;SDS011;69532;37.974;23.708;2023-05-19T02:34:35;7.82;;;4.88;;
80215;SDS011;69532;37.974;23.708;2023-05-19T02:37:01;9.60;;;5.32;;
80215;SDS011;69532;37.974;23.708;2023-05-19T02:39:27;11.35;;;5.63;;
80215;SDS011;69532;37.974;23.708;2023-05-19T02:41:55;9.32;;;4.93;;
80215;SDS011;69532;37.974;23.708;2023-05-19T02:44:20;11.35;;;5.13;;
80215;SDS011;69532;37.974;23.708;2023-05-19T02:46:46;8.55;;;4.90;;
80215;SDS011;69532;37.974;23.708;2023-05-19T02:49:11;9.63;;;5.07;;
80215;SDS011;69532;37.974;23.708;2023-05-19T02:51:38;8.77;;;5.10;;
80215;SDS011;69532;37.974;23.708;2023-05-19T02:54:03;8.05;;;4.85;;
80215;SDS011;69532;37.974;23.708;2023-05-19T02:56:29;10.43;;;5.82;;
80215;SDS011;69532;37.974;23.708;2023-05-19T02:58:55;9.65;;;5.55;;
80215;SDS011;69532;37.974;23.708;2023-05-19T03:01:20;12.55;;;5.28;;
80215;SDS011;69532;37.974;23.708;2023-05-19T03:03:47;8.93;;;5.40;;
80215;SDS011;69532;37.974;23.708;2023-05-19T03:06:12;9.93;;;5.40;;
80215;SDS011;69532;37.974;23.708;2023-05-19T03:08:39;11.45;;;5.20;;
80215;SDS011;69532;37.974;23.708;2023-05-19T03:11:05;10.45;;;4.80;;
80215;SDS011;69532;37.974;23.708;2023-05-19T03:13:30;9.02;;;5.13;;
80215;SDS011;69532;37.974;23.708;2023-05-19T03:15:56;8.38;;;4.80;;
80215;SDS011;69532;37.974;23.708;2023-05-19T03:18:23;8.40;;;4.90;;
80215;SDS011;69532;37.974;23.708;2023-05-19T03:20:50;8.90;;;4.80;;
80215;SDS011;69532;37.974;23.708;2023-05-19T03:23:17;7.88;;;4.63;;
80215;SDS011;69532;37.974;23.708;2023-05-19T03:25:44;8.65;;;5.03;;
80215;SDS011;69532;37.974;23.708;2023-05-19T03:28:10;7.57;;;4.90;;
80215;SDS011;69532;37.974;23.708;2023-05-19T03:30:35;11.02;;;5.00;;
80215;SDS011;69532;37.974;23.708;2023-05-19T03:33:01;7.78;;;4.68;;
80215;SDS011;69532;37.974;23.708;2023-05-19T03:35:27;8.55;;;4.95;;
80215;SDS011;69532;37.974;23.708;2023-05-19T03:37:53;10.38;;;5.28;;
80215;SDS011;69532;37.974;23.708;2023-05-19T03:40:18;9.05;;;5.22;;
80215;SDS011;69532;37.974;23.708;2023-05-19T03:42:44;8.57;;;5.28;;
80215;SDS011;69532;37.974;23.708;2023-05-19T03:45:10;7.95;;;5.60;;
80215;SDS011;69532;37.974;23.708;2023-05-19T03:47:35;8.50;;;5.28;;
80215;SDS011;69532;37.974;23.708;2023-05-19T03:50:01;8.77;;;5.75;;
80215;SDS011;69532;37.974;23.708;2023-05-19T03:52:27;9.57;;;6.25;;
80215;SDS011;69532;37.974;23.708;2023-05-19T03:54:53;9.60;;;5.97;;
80215;SDS011;69532;37.974;23.708;2023-05-19T03:57:18;11.60;;;6.38;;
80215;SDS011;69532;37.974;23.708;2023-05-19T03:59:44;9.75;;;6.00;;
80215;SDS011;69532;37.974;23.708;2023-05-19T04:02:10;9.27;;;6.47;;
80215;SDS011;69532;37.974;23.708;2023-05-19T04:04:36;11.02;;;6.18;;
80215;SDS011;69532;37.974;23.708;2023-05-19T04:07:02;12.70;;;7.15;;
80215;SDS011;69532;37.974;23.708;2023-05-19T04:09:27;9.43;;;6.72;;
80215;SDS011;69532;37.974;23.708;2023-05-19T04:11:56;10.30;;;6.20;;
80215;SDS011;69532;37.974;23.708;2023-05-19T04:14:21;10.68;;;6.38;;
80215;SDS011;69532;37.974;23.708;2023-05-19T04:16:47;9.57;;;6.53;;
80215;SDS011;69532;37.974;23.708;2023-05-19T04:19:13;12.32;;;6.47;;
80215;SDS011;69532;37.974;23.708;2023-05-19T04:21:39;11.35;;;6.63;;
80215;SDS011;69532;37.974;23.708;2023-05-19T04:24:05;10.35;;;6.22;;
80215;SDS011;69532;37.974;23.708;2023-05-19T04:26:31;10.63;;;6.07;;
80215;SDS011;69532;37.974;23.708;2023-05-19T04:28:58;10.50;;;6.28;;
80215;SDS011;69532;37.974;23.708;2023-05-19T04:31:25;10.07;;;6.00;;
80215;SDS011;69532;37.974;23.708;2023-05-19T04:33:52;10.02;;;6.00;;
80215;SDS011;69532;37.974;23.708;2023-05-19T04:36:18;9.25;;;6.03;;
80215;SDS011;69532;37.974;23.708;2023-05-19T04:38:45;9.63;;;5.93;;
80215;SDS011;69532;37.974;23.708;2023-05-19T04:41:12;9.27;;;5.40;;
80215;SDS011;69532;37.974;23.708;2023-05-19T04:43:37;9.93;;;5.50;;
80215;SDS011;69532;37.974;23.708;2023-05-19T04:46:09;8.88;;;5.63;;
80215;SDS011;69532;37.974;23.708;2023-05-19T04:48:35;9.52;;;5.50;;
80215;SDS011;69532;37.974;23.708;2023-05-19T04:51:01;7.65;;;5.25;;
80215;SDS011;69532;37.974;23.708;2023-05-19T04:53:27;6.93;;;4.72;;
80215;SDS011;69532;37.974;23.708;2023-05-19T04:55:53;8.48;;;5.20;;
80215;SDS011;69532;37.974;23.708;2023-05-19T04:58:20;7.80;;;5.10;;
80215;SDS011;69532;37.974;23.708;2023-05-19T05:00:49;9.00;;;5.88;;
80215;SDS011;69532;37.974;23.708;2023-05-19T05:03:15;8.07;;;5.45;;
80215;SDS011;69532;37.974;23.708;2023-05-19T05:05:41;7.90;;;4.93;;
80215;SDS011;69532;37.974;23.708;2023-05-19T05:08:08;7.75;;;4.90;;
80215;SDS011;69532;37.974;23.708;2023-05-19T05:10:34;7.63;;;4.97;;
80215;SDS011;69532;37.974;23.708;2023-05-19T05:13:00;7.93;;;4.70;;
80215;SDS011;69532;37.974;23.708;2023-05-19T05:15:26;8.70;;;4.80;;
80215;SDS011;69532;37.974;23.708;2023-05-19T05:17:54;8.00;;;4.90;;
80215;SDS011;69532;37.974;23.708;2023-05-19T05:20:20;8.88;;;4.57;;
80215;SDS011;69532;37.974;23.708;2023-05-19T05:22:46;7.07;;;4.63;;
80215;SDS011;69532;37.974;23.708;2023-05-19T05:25:12;6.55;;;4.47;;
80215;SDS011;69532;37.974;23.708;2023-05-19T05:27:38;6.68;;;4.20;;
80215;SDS011;69532;37.974;23.708;2023-05-19T05:30:04;6.82;;;4.10;;
80215;SDS011;69532;37.974;23.708;2023-05-19T05:32:31;6.45;;;4.25;;
80215;SDS011;69532;37.974;23.708;2023-05-19T05:34:56;6.57;;;4.00;;
80215;SDS011;69532;37.974;23.708;2023-05-19T05:37:22;7.25;;;3.90;;
80215;SDS011;69532;37.974;23.708;2023-05-19T05:39:48;7.88;;;4.22;;
80215;SDS011;69532;37.974;23.708;2023-05-19T05:42:14;7.18;;;4.03;;
80215;SDS011;69532;37.974;23.708;2023-05-19T05:44:40;6.50;;;4.07;;
80215;SDS011;69532;37.974;23.708;2023-05-19T05:47:06;6.90;;;4.18;;
80215;SDS011;69532;37.974;23.708;2023-05-19T05:49:32;7.53;;;3.97;;
80215;SDS011;69532;37.974;23.708;2023-05-19T05:52:02;6.75;;;3.72;;
80215;SDS011;69532;37.974;23.708;2023-05-19T05:54:28;6.47;;;3.40;;
80215;SDS011;69532;37.974;23.708;2023-05-19T05:56:54;6.30;;;3.38;;
80215;SDS011;69532;37.974;23.708;2023-05-19T05:59:20;5.68;;;3.13;;
80215;SDS011;69532;37.974;23.708;2023-05-19T06:01:46;5.43;;;3.05;;
80215;SDS011;69532;37.974;23.708;2023-05-19T06:04:12;4.80;;;2.78;;
80215;SDS011;69532;37.974;23.708;2023-05-19T06:06:38;5.55;;;3.20;;
80215;SDS011;69532;37.974;23.708;2023-05-19T06:09:03;5.95;;;2.97;;
80215;SDS011;69532;37.974;23.708;2023-05-19T06:11:29;5.55;;;2.90;;
80215;SDS011;69532;37.974;23.708;2023-05-19T06:13:55;5.03;;;2.92;;
80215;SDS011;69532;37.974;23.708;2023-05-19T06:16:21;5.53;;;2.80;;
80215;SDS011;69532;37.974;23.708;2023-05-19T06:18:46;5.20;;;2.80;;
80215;SDS011;69532;37.974;23.708;2023-05-19T06:21:12;5.03;;;2.58;;
80215;SDS011;69532;37.974;23.708;2023-05-19T06:23:38;5.65;;;2.70;;
80215;SDS011;69532;37.974;23.708;2023-05-19T06:26:05;5.18;;;2.50;;
80215;SDS011;69532;37.974;23.708;2023-05-19T06:28:31;4.72;;;2.63;;
80215;SDS011;69532;37.974;23.708;2023-05-19T06:30:57;4.88;;;2.42;;
80215;SDS011;69532;37.974;23.708;2023-05-19T06:33:24;5.38;;;2.70;;
80215;SDS011;69532;37.974;23.708;2023-05-19T06:35:50;6.05;;;2.47;;
80215;SDS011;69532;37.974;23.708;2023-05-19T06:38:15;5.30;;;2.60;;
80215;SDS011;69532;37.974;23.708;2023-05-19T06:40:41;5.25;;;2.50;;
80215;SDS011;69532;37.974;23.708;2023-05-19T06:43:07;5.22;;;2.40;;
80215;SDS011;69532;37.974;23.708;2023-05-19T06:45:33;4.95;;;2.20;;
80215;SDS011;69532;37.974;23.708;2023-05-19T06:47:58;4.13;;;2.20;;
80215;SDS011;69532;37.974;23.708;2023-05-19T06:50:25;4.70;;;2.15;;
80215;SDS011;69532;37.974;23.708;2023-05-19T06:52:51;5.57;;;2.50;;
80215;SDS011;69532;37.974;23.708;2023-05-19T06:55:17;5.45;;;2.78;;
80215;SDS011;69532;37.974;23.708;2023-05-19T06:57:43;5.88;;;2.50;;
80215;SDS011;69532;37.974;23.708;2023-05-19T07:00:09;4.93;;;2.60;;
80215;SDS011;69532;37.974;23.708;2023-05-19T07:02:38;4.93;;;2.55;;
80215;SDS011;69532;37.974;23.708;2023-05-19T07:05:04;6.28;;;2.65;;
80215;SDS011;69532;37.974;23.708;2023-05-19T07:07:30;5.18;;;2.58;;
80215;SDS011;69532;37.974;23.708;2023-05-19T07:09:55;5.93;;;2.72;;
80215;SDS011;69532;37.974;23.708;2023-05-19T07:12:21;4.68;;;2.40;;
80215;SDS011;69532;37.974;23.708;2023-05-19T07:14:47;4.68;;;2.45;;
80215;SDS011;69532;37.974;23.708;2023-05-19T07:17:12;6.53;;;3.28;;
80215;SDS011;69532;37.974;23.708;2023-05-19T07:19:39;6.32;;;2.90;;
80215;SDS011;69532;37.974;23.708;2023-05-19T07:22:04;6.95;;;3.00;;
80215;SDS011;69532;37.974;23.708;2023-05-19T07:24:30;6.03;;;2.92;;
80215;SDS011;69532;37.974;23.708;2023-05-19T07:26:56;5.93;;;2.67;;
80215;SDS011;69532;37.974;23.708;2023-05-19T07:29:22;6.10;;;3.10;;
80215;SDS011;69532;37.974;23.708;2023-05-19T07:31:48;7.63;;;3.13;;
80215;SDS011;69532;37.974;23.708;2023-05-19T07:34:18;7.78;;;2.97;;
80215;SDS011;69532;37.974;23.708;2023-05-19T07:36:44;6.88;;;3.25;;
80215;SDS011;69532;37.974;23.708;2023-05-19T07:39:10;6.60;;;2.85;;
80215;SDS011;69532;37.974;23.708;2023-05-19T07:41:36;5.03;;;2.78;;
80215;SDS011;69532;37.974;23.708;2023-05-19T07:44:02;7.38;;;3.78;;
80215;SDS011;69532;37.974;23.708;2023-05-19T07:46:31;7.38;;;3.00;;
80215;SDS011;69532;37.974;23.708;2023-05-19T07:48:58;6.10;;;3.10;;
80215;SDS011;69532;37.974;23.708;2023-05-19T07:51:23;7.47;;;3.20;;
80215;SDS011;69532;37.974;23.708;2023-05-19T07:53:49;7.40;;;3.42;;
80215;SDS011;69532;37.974;23.708;2023-05-19T07:56:15;6.20;;;3.35;;
80215;SDS011;69532;37.974;23.708;2023-05-19T07:58:41;7.70;;;3.40;;
80215;SDS011;69532;37.974;23.708;2023-05-19T08:01:06;6.07;;;3.05;;
80215;SDS011;69532;37.974;23.708;2023-05-19T08:03:32;6.45;;;3.00;;
80215;SDS011;69532;37.974;23.708;2023-05-19T08:06:01;5.95;;;2.83;;
80215;SDS011;69532;37.974;23.708;2023-05-19T08:08:27;6.50;;;3.30;;
80215;SDS011;69532;37.974;23.708;2023-05-19T08:10:52;6.82;;;3.17;;
80215;SDS011;69532;37.974;23.708;2023-05-19T08:13:18;7.93;;;3.35;;
80215;SDS011;69532;37.974;23.708;2023-05-19T08:15:44;8.80;;;3.40;;
80215;SDS011;69532;37.974;23.708;2023-05-19T08:18:10;7.13;;;3.55;;
80215;SDS011;69532;37.974;23.708;2023-05-19T08:20:35;6.20;;;3.20;;
80215;SDS011;69532;37.974;23.708;2023-05-19T08:23:01;7.47;;;3.03;;
80215;SDS011;69532;37.974;23.708;2023-05-19T08:25:27;6.82;;;2.92;;
80215;SDS011;69532;37.974;23.708;2023-05-19T08:27:53;6.22;;;2.72;;
80215;SDS011;69532;37.974;23.708;2023-05-19T08:30:18;6.70;;;2.75;;
80215;SDS011;69532;37.974;23.708;2023-05-19T08:32:44;6.07;;;3.10;;
80215;SDS011;69532;37.974;23.708;2023-05-19T08:35:10;6.07;;;3.35;;
80215;SDS011;69532;37.974;23.708;2023-05-19T08:37:36;6.05;;;2.85;;
80215;SDS011;69532;37.974;23.708;2023-05-19T08:40:03;6.50;;;3.00;;
80215;SDS011;69532;37.974;23.708;2023-05-19T08:42:29;6.45;;;3.08;;
80215;SDS011;69532;37.974;23.708;2023-05-19T08:44:57;6.47;;;3.13;;
80215;SDS011;69532;37.974;23.708;2023-05-19T08:47:23;6.20;;;3.38;;
80215;SDS011;69532;37.974;23.708;2023-05-19T08:49:52;6.57;;;3.30;;
80215;SDS011;69532;37.974;23.708;2023-05-19T08:52:38;5.40;;;3.10;;
80215;SDS011;69532;37.974;23.708;2023-05-19T08:55:35;6.50;;;3.63;;
80215;SDS011;69532;37.974;23.708;2023-05-19T08:58:13;5.47;;;3.13;;
80215;SDS011;69532;37.974;23.708;2023-05-19T09:00:41;8.23;;;3.08;;
80215;SDS011;69532;37.974;23.708;2023-05-19T09:03:07;6.10;;;3.20;;
80215;SDS011;69532;37.974;23.708;2023-05-19T09:05:33;6.00;;;2.88;;
80215;SDS011;69532;37.974;23.708;2023-05-19T09:07:59;7.40;;;3.05;;
80215;SDS011;69532;37.974;23.708;2023-05-19T09:10:26;5.97;;;2.90;;
80215;SDS011;69532;37.974;23.708;2023-05-19T09:12:52;5.80;;;3.38;;
80215;SDS011;69532;37.974;23.708;2023-05-19T09:15:18;6.68;;;3.40;;
80215;SDS011;69532;37.974;23.708;2023-05-19T09:17:44;6.53;;;3.40;;
80215;SDS011;69532;37.974;23.708;2023-05-19T09:20:12;6.63;;;3.25;;
80215;SDS011;69532;37.974;23.708;2023-05-19T09:22:43;6.07;;;3.28;;
80215;SDS011;69532;37.974;23.708;2023-05-19T09:25:18;5.50;;;3.33;;
80215;SDS011;69532;37.974;23.708;2023-05-19T09:27:46;6.68;;;3.72;;
80215;SDS011;69532;37.974;23.708;2023-05-19T09:30:14;6.32;;;3.67;;
80215;SDS011;69532;37.974;23.708;2023-05-19T09:32:40;6.32;;;3.47;;
80215;SDS011;69532;37.974;23.708;2023-05-19T09:35:07;6.68;;;3.53;;
80215;SDS011;69532;37.974;23.708;2023-05-19T09:37:33;6.63;;;3.50;;
80215;SDS011;69532;37.974;23.708;2023-05-19T09:39:58;7.53;;;3.47;;
80215;SDS011;69532;37.974;23.708;2023-05-19T09:42:24;7.32;;;3.47;;
80215;SDS011;69532;37.974;23.708;2023-05-19T09:44:58;7.20;;;3.30;;
80215;SDS011;69532;37.974;23.708;2023-05-19T09:47:25;8.38;;;3.40;;
80215;SDS011;69532;37.974;23.708;2023-05-19T09:49:52;6.65;;;3.00;;
80215;SDS011;69532;37.974;23.708;2023-05-19T09:52:18;5.40;;;3.08;;
80215;SDS011;69532;37.974;23.708;2023-05-19T09:54:44;7.47;;;3.50;;
80215;SDS011;69532;37.974;23.708;2023-05-19T09:57:12;5.90;;;3.17;;
80215;SDS011;69532;37.974;23.708;2023-05-19T09:59:38;5.47;;;2.70;;
80215;SDS011;69532;37.974;23.708;2023-05-19T10:02:04;6.57;;;3.28;;
80215;SDS011;69532;37.974;23.708;2023-05-19T10:04:39;6.88;;;3.10;;
80215;SDS011;69532;37.974;23.708;2023-05-19T10:07:06;6.22;;;3.38;;
80215;SDS011;69532;37.974;23.708;2023-05-19T10:09:34;5.72;;;3.10;;
80215;SDS011;69532;37.974;23.708;2023-05-19T10:12:01;5.70;;;3.13;;
80215;SDS011;69532;37.974;23.708;2023-05-19T10:14:28;6.45;;;3.08;;
80215;SDS011;69532;37.974;23.708;2023-05-19T10:16:55;7.45;;;3.10;;
80215;SDS011;69532;37.974;23.708;2023-05-19T10:19:25;7.35;;;3.03;;
80215;SDS011;69532;37.974;23.708;2023-05-19T10:21:52;6.45;;;3.42;;
80215;SDS011;69532;37.974;23.708;2023-05-19T10:24:19;6.40;;;3.38;;
80215;SDS011;69532;37.974;23.708;2023-05-19T10:26:48;6.22;;;3.50;;
80215;SDS011;69532;37.974;23.708;2023-05-19T10:29:24;6.82;;;3.17;;
80215;SDS011;69532;37.974;23.708;2023-05-19T10:31:52;6.30;;;3.03;;
80215;SDS011;69532;37.974;23.708;2023-05-19T10:37:36;6.75;;;3.60;;
80215;SDS011;69532;37.974;23.708;2023-05-19T10:40:15;6.20;;;3.47;;
80215;SDS011;69532;37.974;23.708;2023-05-19T10:45:40;6.25;;;3.22;;
80215;SDS011;69532;37.974;23.708;2023-05-19T10:48:16;6.10;;;3.25;;
80215;SDS011;69532;37.974;23.708;2023-05-19T10:50:45;6.63;;;3.40;;
80215;SDS011;69532;37.974;23.708;2023-05-19T10:53:17;6.57;;;3.50;;
80215;SDS011;69532;37.974;23.708;2023-05-19T11:01:06;7.25;;;3.60;;
80215;SDS011;69532;37.974;23.708;2023-05-19T11:06:20;7.22;;;4.75;;
80215;SDS011;69532;37.974;23.708;2023-05-19T11:08:52;7.60;;;4.87;;
80215;SDS011;69532;37.974;23.708;2023-05-19T11:11:25;8.57;;;4.47;;
80215;SDS011;69532;37.974;23.708;2023-05-19T11:13:55;7.13;;;4.45;;
80215;SDS011;69532;37.974;23.708;2023-05-19T11:16:27;8.15;;;4.07;;
80215;SDS011;69532;37.974;23.708;2023-05-19T11:18:54;7.80;;;3.60;;
80215;SDS011;69532;37.974;23.708;2023-05-19T11:21:22;7.57;;;3.80;;
80215;SDS011;69532;37.974;23.708;2023-05-19T11:23:49;8.07;;;3.75;;
80215;SDS011;69532;37.974;23.708;2023-05-19T11:26:15;6.97;;;4.20;;
80215;SDS011;69532;37.974;23.708;2023-05-19T11:29:05;7.07;;;3.80;;
80215;SDS011;69532;37.974;23.708;2023-05-19T11:31:31;6.85;;;3.50;;
80215;SDS011;69532;37.974;23.708;2023-05-19T11:34:00;5.97;;;3.70;;
80215;SDS011;69532;37.974;23.708;2023-05-19T11:36:27;6.03;;;3.50;;
80215;SDS011;69532;37.974;23.708;2023-05-19T11:38:53;7.53;;;3.60;;
80215;SDS011;69532;37.974;23.708;2023-05-19T11:41:19;6.70;;;3.83;;
80215;SDS011;69532;37.974;23.708;2023-05-19T11:43:46;6.53;;;3.80;;
80215;SDS011;69532;37.974;23.708;2023-05-19T11:46:12;6.80;;;3.83;;
80215;SDS011;69532;37.974;23.708;2023-05-19T11:48:38;6.13;;;3.83;;
80215;SDS011;69532;37.974;23.708;2023-05-19T11:51:07;6.78;;;3.72;;
80215;SDS011;69532;37.974;23.708;2023-05-19T11:53:32;8.23;;;3.92;;
80215;SDS011;69532;37.974;23.708;2023-05-19T11:56:03;6.63;;;4.13;;
80215;SDS011;69532;37.974;23.708;2023-05-19T11:58:28;6.82;;;4.05;;
80215;SDS011;69532;37.974;23.708;2023-05-19T12:00:54;6.78;;;3.55;;
80215;SDS011;69532;37.974;23.708;2023-05-19T12:03:20;6.93;;;3.70;;
80215;SDS011;69532;37.974;23.708;2023-05-19T12:05:51;6.78;;;3.72;;
80215;SDS011;69532;37.974;23.708;2023-05-19T12:08:17;7.38;;;3.80;;
80215;SDS011;69532;37.974;23.708;2023-05-19T12:10:44;8.18;;;4.10;;
80215;SDS011;69532;37.974;23.708;2023-05-19T12:13:15;7.72;;;3.92;;
80215;SDS011;69532;37.974;23.708;2023-05-19T12:15:41;6.63;;;3.58;;
80215;SDS011;69532;37.974;23.708;2023-05-19T12:18:07;7.32;;;3.80;;
80215;SDS011;69532;37.974;23.708;2023-05-19T12:20:33;7.20;;;3.90;;
80215;SDS011;69532;37.974;23.708;2023-05-19T12:22:59;9.02;;;5.13;;
80215;SDS011;69532;37.974;23.708;2023-05-19T12:25:26;6.80;;;4.13;;
80215;SDS011;69532;37.974;23.708;2023-05-19T12:27:56;7.50;;;4.03;;
80215;SDS011;69532;37.974;23.708;2023-05-19T12:30:24;6.75;;;3.70;;
80215;SDS011;69532;37.974;23.708;2023-05-19T12:32:52;6.40;;;4.32;;
80215;SDS011;69532;37.974;23.708;2023-05-19T12:35:19;8.57;;;4.05;;
80215;SDS011;69532;37.974;23.708;2023-05-19T12:37:47;7.40;;;4.13;;
80215;SDS011;69532;37.974;23.708;2023-05-19T12:40:15;7.78;;;4.32;;
80215;SDS011;69532;37.974;23.708;2023-05-19T12:42:44;6.97;;;3.90;;
80215;SDS011;69532;37.974;23.708;2023-05-19T12:45:10;7.03;;;4.22;;
80215;SDS011;69532;37.974;23.708;2023-05-19T12:47:36;6.90;;;4.20;;
80215;SDS011;69532;37.974;23.708;2023-05-19T12:50:03;6.95;;;4.03;;
80215;SDS011;69532;37.974;23.708;2023-05-19T12:52:33;7.88;;;4.15;;
80215;SDS011;69532;37.974;23.708;2023-05-19T12:55:05;6.78;;;4.22;;
80215;SDS011;69532;37.974;23.708;2023-05-19T12:57:35;6.00;;;3.78;;
80215;SDS011;69532;37.974;23.708;2023-05-19T13:00:06;7.32;;;4.10;;
80215;SDS011;69532;37.974;23.708;2023-05-19T13:02:35;6.55;;;3.42;;
80215;SDS011;69532;37.974;23.708;2023-05-19T13:05:26;6.45;;;3.50;;
80215;SDS011;69532;37.974;23.708;2023-05-19T13:10:20;6.88;;;4.00;;
80215;SDS011;69532;37.974;23.708;2023-05-19T13:12:46;6.60;;;3.97;;
80215;SDS011;69532;37.974;23.708;2023-05-19T13:15:11;5.65;;;3.45;;
80215;SDS011;69532;37.974;23.708;2023-05-19T13:17:37;6.13;;;3.78;;
80215;SDS011;69532;37.974;23.708;2023-05-19T13:20:03;5.28;;;3.17;;
80215;SDS011;69532;37.974;23.708;2023-05-19T13:22:29;7.18;;;3.55;;
80215;SDS011;69532;37.974;23.708;2023-05-19T13:24:55;6.32;;;3.30;;
80215;SDS011;69532;37.974;23.708;2023-05-19T13:27:23;8.02;;;3.70;;
80215;SDS011;69532;37.974;23.708;2023-05-19T13:29:50;6.65;;;3.50;;
80215;SDS011;69532;37.974;23.708;2023-05-19T13:32:16;5.93;;;3.50;;
80215;SDS011;69532;37.974;23.708;2023-05-19T13:34:41;6.28;;;3.78;;
80215;SDS011;69532;37.974;23.708;2023-05-19T13:37:07;6.25;;;3.70;;
80215;SDS011;69532;37.974;23.708;2023-05-19T13:39:33;8.30;;;3.40;;
80215;SDS011;69532;37.974;23.708;2023-05-19T13:42:00;6.57;;;3.65;;
80215;SDS011;69532;37.974;23.708;2023-05-19T13:44:25;6.00;;;3.60;;
80215;SDS011;69532;37.974;23.708;2023-05-19T13:46:51;5.85;;;3.22;;
80215;SDS011;69532;37.974;23.708;2023-05-19T13:49:17;6.00;;;3.42;;
80215;SDS011;69532;37.974;23.708;2023-05-19T13:51:42;7.35;;;3.22;;
80215;SDS011;69532;37.974;23.708;2023-05-19T13:54:08;5.43;;;2.92;;
80215;SDS011;69532;37.974;23.708;2023-05-19T13:56:34;6.45;;;3.40;;
80215;SDS011;69532;37.974;23.708;2023-05-19T13:59:00;5.20;;;2.92;;
80215;SDS011;69532;37.974;23.708;2023-05-19T14:01:28;5.07;;;3.00;;
80215;SDS011;69532;37.974;23.708;2023-05-19T14:03:53;6.63;;;3.17;;
80215;SDS011;69532;37.974;23.708;2023-05-19T14:06:19;5.47;;;2.83;;
80215;SDS011;69532;37.974;23.708;2023-05-19T14:08:45;5.57;;;3.00;;
80215;SDS011;69532;37.974;23.708;2023-05-19T14:11:18;5.60;;;2.83;;
80215;SDS011;69532;37.974;23.708;2023-05-19T14:13:46;5.18;;;2.80;;
80215;SDS011;69532;37.974;23.708;2023-05-19T14:16:14;5.25;;;2.90;;
80215;SDS011;69532;37.974;23.708;2023-05-19T14:18:40;5.38;;;2.80;;
80215;SDS011;69532;37.974;23.708;2023-05-19T14:21:06;5.65;;;2.70;;
80215;SDS011;69532;37.974;23.708;2023-05-19T14:23:32;5.95;;;2.80;;
80215;SDS011;69532;37.974;23.708;2023-05-19T14:25:58;5.00;;;2.75;;
80215;SDS011;69532;37.974;23.708;2023-05-19T14:28:24;4.90;;;2.47;;
80215;SDS011;69532;37.974;23.708;2023-05-19T14:30:50;5.05;;;2.67;;
80215;SDS011;69532;37.974;23.708;2023-05-19T14:33:16;5.30;;;2.47;;
80215;SDS011;69532;37.974;23.708;2023-05-19T14:35:43;5.55;;;2.70;;
80215;SDS011;69532;37.974;23.708;2023-05-19T14:38:09;5.13;;;2.70;;
80215;SDS011;69532;37.974;23.708;2023-05-19T14:40:35;4.55;;;2.38;;
80215;SDS011;69532;37.974;23.708;2023-05-19T14:43:02;5.13;;;2.50;;
80215;SDS011;69532;37.974;23.708;2023-05-19T14:45:28;4.95;;;2.47;;
80215;SDS011;69532;37.974;23.708;2023-05-19T14:47:53;5.13;;;2.60;;
80215;SDS011;69532;37.974;23.708;2023-05-19T14:50:19;5.97;;;2.70;;
80215;SDS011;69532;37.974;23.708;2023-05-19T14:52:45;4.35;;;2.22;;
80215;SDS011;69532;37.974;23.708;2023-05-19T14:55:13;5.22;;;2.40;;
80215;SDS011;69532;37.974;23.708;2023-05-19T14:57:39;5.72;;;2.53;;
80215;SDS011;69532;37.974;23.708;2023-05-19T15:00:05;5.10;;;2.70;;
80215;SDS011;69532;37.974;23.708;2023-05-19T15:02:34;5.18;;;2.53;;
80215;SDS011;69532;37.974;23.708;2023-05-19T15:05:00;4.85;;;2.45;;
80215;SDS011;69532;37.974;23.708;2023-05-19T15:07:26;5.10;;;2.60;;
80215;SDS011;69532;37.974;23.708;2023-05-19T15:09:52;5.82;;;2.38;;